sensor_id;sensor_type;location;lat;lon;timestamp;P1;durP1;ratioP1;P2;durP2;ratioP2
5821;SDS011;2937;48.562;8.022;2022-07-09T00:00:40;9.33;;;6.20;;
5821;SDS011;2937;48.562;8.022;2022-07-09T00:05:32;12.17;;;6.03;;
5821;SDS011;2937;48.562;8.022;2022-07-09T00:10:26;9.80;;;6.37;;
5821;SDS011;2937;48.562;8.022;2022-07-09T00:15:19;10.43;;;6.63;;
5821;SDS011;2937;48.562;8.022;2022-07-09T00:20:11;12.07;;;6.60;;
5821;SDS011;2937;48.562;8.022;2022-07-09T00:25:04;10.13;;;5.73;;
5821;SDS011;2937;48.562;8.022;2022-07-09T00:29:58;12.00;;;6.00;;
5821;SDS011;2937;48.562;8.022;2022-07-09T00:34:51;9.30;;;6.50;;
5821;SDS011;2937;48.562;8.022;2022-07-09T00:39:43;12.30;;;7.07;;
5821;SDS011;2937;48.562;8.022;2022-07-09T00:44:36;14.03;;;6.70;;
5821;SDS011;2937;48.562;8.022;2022-07-09T00:49:30;14.97;;;6.87;;
5821;SDS011;2937;48.562;8.022;2022-07-09T00:54:23;13.10;;;6.53;;
5821;SDS011;2937;48.562;8.022;2022-07-09T00:59:16;9.80;;;5.87;;
5821;SDS011;2937;48.562;8.022;2022-07-09T01:04:10;12.10;;;6.40;;
5821;SDS011;2937;48.562;8.022;2022-07-09T01:09:04;11.73;;;6.20;;
5821;SDS011;2937;48.562;8.022;2022-07-09T01:13:56;10.70;;;6.93;;
5821;SDS011;2937;48.562;8.022;2022-07-09T01:18:49;9.17;;;5.90;;
5821;SDS011;2937;48.562;8.022;2022-07-09T01:23:43;10.33;;;6.60;;
5821;SDS011;2937;48.562;8.022;2022-07-09T01:28:36;10.57;;;6.27;;
5821;SDS011;2937;48.562;8.022;2022-07-09T01:33:29;10.03;;;6.40;;
5821;SDS011;2937;48.562;8.022;2022-07-09T01:38:23;10.03;;;6.13;;
5821;SDS011;2937;48.562;8.022;2022-07-09T01:43:17;11.97;;;6.50;;
5821;SDS011;2937;48.562;8.022;2022-07-09T01:48:09;10.53;;;6.27;;
5821;SDS011;2937;48.562;8.022;2022-07-09T01:53:02;12.90;;;6.03;;
5821;SDS011;2937;48.562;8.022;2022-07-09T01:57:55;8.77;;;5.53;;
5821;SDS011;2937;48.562;8.022;2022-07-09T02:02:49;7.27;;;5.40;;
5821;SDS011;2937;48.562;8.022;2022-07-09T02:07:42;10.80;;;5.10;;
5821;SDS011;2937;48.562;8.022;2022-07-09T02:12:34;9.47;;;5.80;;
5821;SDS011;2937;48.562;8.022;2022-07-09T02:17:27;7.13;;;5.23;;
5821;SDS011;2937;48.562;8.022;2022-07-09T02:22:21;10.67;;;5.30;;
5821;SDS011;2937;48.562;8.022;2022-07-09T02:27:13;8.00;;;5.20;;
5821;SDS011;2937;48.562;8.022;2022-07-09T02:32:06;9.80;;;5.70;;
5821;SDS011;2937;48.562;8.022;2022-07-09T02:37:01;10.10;;;6.13;;
5821;SDS011;2937;48.562;8.022;2022-07-09T02:41:55;7.77;;;5.27;;
5821;SDS011;2937;48.562;8.022;2022-07-09T02:46:47;7.50;;;5.10;;
5821;SDS011;2937;48.562;8.022;2022-07-09T02:51:40;8.90;;;4.97;;
5821;SDS011;2937;48.562;8.022;2022-07-09T02:56:33;6.03;;;5.03;;
5821;SDS011;2937;48.562;8.022;2022-07-09T03:01:27;8.97;;;5.50;;
5821;SDS011;2937;48.562;8.022;2022-07-09T03:06:20;5.50;;;4.40;;
5821;SDS011;2937;48.562;8.022;2022-07-09T03:11:12;8.00;;;4.83;;
5821;SDS011;2937;48.562;8.022;2022-07-09T03:16:05;8.37;;;4.70;;
5821;SDS011;2937;48.562;8.022;2022-07-09T03:20:59;7.17;;;4.80;;
5821;SDS011;2937;48.562;8.022;2022-07-09T03:25:52;9.90;;;5.27;;
5821;SDS011;2937;48.562;8.022;2022-07-09T03:30:45;8.30;;;5.03;;
5821;SDS011;2937;48.562;8.022;2022-07-09T03:35:37;6.93;;;5.13;;
5821;SDS011;2937;48.562;8.022;2022-07-09T03:40:32;7.20;;;5.57;;
5821;SDS011;2937;48.562;8.022;2022-07-09T03:45:25;9.40;;;4.67;;
5821;SDS011;2937;48.562;8.022;2022-07-09T03:50:17;8.10;;;5.00;;
5821;SDS011;2937;48.562;8.022;2022-07-09T03:55:11;7.03;;;4.70;;
5821;SDS011;2937;48.562;8.022;2022-07-09T04:00:06;6.73;;;5.00;;
5821;SDS011;2937;48.562;8.022;2022-07-09T04:05:05;10.10;;;5.77;;
5821;SDS011;2937;48.562;8.022;2022-07-09T04:09:57;8.73;;;5.67;;
5821;SDS011;2937;48.562;8.022;2022-07-09T04:14:50;9.97;;;4.80;;
5821;SDS011;2937;48.562;8.022;2022-07-09T04:19:44;8.50;;;5.33;;
5821;SDS011;2937;48.562;8.022;2022-07-09T04:24:37;7.07;;;5.13;;
5821;SDS011;2937;48.562;8.022;2022-07-09T04:29:29;9.23;;;5.10;;
5821;SDS011;2937;48.562;8.022;2022-07-09T04:34:22;8.83;;;4.70;;
5821;SDS011;2937;48.562;8.022;2022-07-09T04:39:16;5.70;;;4.67;;
5821;SDS011;2937;48.562;8.022;2022-07-09T04:44:09;11.57;;;5.20;;
5821;SDS011;2937;48.562;8.022;2022-07-09T04:49:03;7.60;;;5.00;;
5821;SDS011;2937;48.562;8.022;2022-07-09T04:53:56;10.63;;;4.83;;
5821;SDS011;2937;48.562;8.022;2022-07-09T04:58:50;7.77;;;5.00;;
5821;SDS011;2937;48.562;8.022;2022-07-09T05:03:45;7.63;;;5.17;;
5821;SDS011;2937;48.562;8.022;2022-07-09T05:08:38;6.60;;;5.07;;
5821;SDS011;2937;48.562;8.022;2022-07-09T05:13:31;6.63;;;4.73;;
5821;SDS011;2937;48.562;8.022;2022-07-09T05:18:25;6.97;;;4.70;;
5821;SDS011;2937;48.562;8.022;2022-07-09T05:23:18;6.77;;;4.80;;
5821;SDS011;2937;48.562;8.022;2022-07-09T05:28:10;8.60;;;4.20;;
5821;SDS011;2937;48.562;8.022;2022-07-09T05:33:03;9.63;;;4.60;;
5821;SDS011;2937;48.562;8.022;2022-07-09T05:37:57;8.50;;;4.50;;
5821;SDS011;2937;48.562;8.022;2022-07-09T05:42:50;8.30;;;4.47;;
5821;SDS011;2937;48.562;8.022;2022-07-09T05:47:43;8.00;;;4.50;;
5821;SDS011;2937;48.562;8.022;2022-07-09T05:52:35;6.57;;;3.77;;
5821;SDS011;2937;48.562;8.022;2022-07-09T05:57:29;7.20;;;3.93;;
5821;SDS011;2937;48.562;8.022;2022-07-09T06:02:23;5.90;;;4.23;;
5821;SDS011;2937;48.562;8.022;2022-07-09T06:07:15;8.07;;;5.10;;
5821;SDS011;2937;48.562;8.022;2022-07-09T06:12:08;6.17;;;4.60;;
5821;SDS011;2937;48.562;8.022;2022-07-09T06:17:02;5.63;;;4.63;;
5821;SDS011;2937;48.562;8.022;2022-07-09T06:21:57;6.17;;;4.67;;
5821;SDS011;2937;48.562;8.022;2022-07-09T06:26:50;6.87;;;4.67;;
5821;SDS011;2937;48.562;8.022;2022-07-09T06:31:43;6.53;;;4.83;;
5821;SDS011;2937;48.562;8.022;2022-07-09T06:36:37;10.80;;;5.07;;
5821;SDS011;2937;48.562;8.022;2022-07-09T06:41:31;8.13;;;5.40;;
5821;SDS011;2937;48.562;8.022;2022-07-09T06:46:24;10.33;;;5.33;;
5821;SDS011;2937;48.562;8.022;2022-07-09T06:51:17;9.07;;;5.83;;
5821;SDS011;2937;48.562;8.022;2022-07-09T06:56:11;8.17;;;5.43;;
5821;SDS011;2937;48.562;8.022;2022-07-09T07:01:04;9.27;;;5.80;;
5821;SDS011;2937;48.562;8.022;2022-07-09T07:05:57;8.70;;;5.07;;
5821;SDS011;2937;48.562;8.022;2022-07-09T07:10:49;9.00;;;5.33;;
5821;SDS011;2937;48.562;8.022;2022-07-09T07:15:43;12.07;;;4.80;;
5821;SDS011;2937;48.562;8.022;2022-07-09T07:20:40;8.87;;;5.20;;
5821;SDS011;2937;48.562;8.022;2022-07-09T07:25:32;5.97;;;4.57;;
5821;SDS011;2937;48.562;8.022;2022-07-09T07:30:25;8.13;;;4.93;;
5821;SDS011;2937;48.562;8.022;2022-07-09T07:35:19;8.10;;;4.60;;
5821;SDS011;2937;48.562;8.022;2022-07-09T07:40:12;10.67;;;4.40;;
5821;SDS011;2937;48.562;8.022;2022-07-09T07:45:05;5.77;;;4.33;;
5821;SDS011;2937;48.562;8.022;2022-07-09T07:49:58;7.17;;;4.40;;
5821;SDS011;2937;48.562;8.022;2022-07-09T07:54:52;9.10;;;5.50;;
5821;SDS011;2937;48.562;8.022;2022-07-09T07:59:45;6.90;;;4.20;;
5821;SDS011;2937;48.562;8.022;2022-07-09T08:04:38;7.50;;;4.13;;
5821;SDS011;2937;48.562;8.022;2022-07-09T08:09:30;8.40;;;3.90;;
5821;SDS011;2937;48.562;8.022;2022-07-09T08:14:25;9.50;;;3.90;;
5821;SDS011;2937;48.562;8.022;2022-07-09T08:19:18;6.60;;;4.13;;
5821;SDS011;2937;48.562;8.022;2022-07-09T08:24:10;8.47;;;3.87;;
5821;SDS011;2937;48.562;8.022;2022-07-09T08:29:03;5.67;;;3.57;;
5821;SDS011;2937;48.562;8.022;2022-07-09T08:33:57;7.80;;;3.87;;
5821;SDS011;2937;48.562;8.022;2022-07-09T08:38:50;6.50;;;3.80;;
5821;SDS011;2937;48.562;8.022;2022-07-09T08:43:42;9.13;;;4.40;;
5821;SDS011;2937;48.562;8.022;2022-07-09T08:48:35;6.23;;;3.70;;
5821;SDS011;2937;48.562;8.022;2022-07-09T08:53:30;7.80;;;3.93;;
5821;SDS011;2937;48.562;8.022;2022-07-09T08:58:23;7.20;;;3.50;;
5821;SDS011;2937;48.562;8.022;2022-07-09T09:03:16;6.23;;;3.60;;
5821;SDS011;2937;48.562;8.022;2022-07-09T09:08:19;7.23;;;3.70;;
5821;SDS011;2937;48.562;8.022;2022-07-09T09:13:15;6.30;;;3.47;;
5821;SDS011;2937;48.562;8.022;2022-07-09T09:18:08;9.10;;;3.70;;
5821;SDS011;2937;48.562;8.022;2022-07-09T09:23:00;5.93;;;3.50;;
5821;SDS011;2937;48.562;8.022;2022-07-09T09:27:55;5.03;;;3.00;;
5821;SDS011;2937;48.562;8.022;2022-07-09T09:32:56;7.50;;;3.40;;
5821;SDS011;2937;48.562;8.022;2022-07-09T09:37:50;5.87;;;3.37;;
5821;SDS011;2937;48.562;8.022;2022-07-09T09:42:42;4.60;;;3.30;;
5821;SDS011;2937;48.562;8.022;2022-07-09T09:47:38;6.10;;;3.20;;
5821;SDS011;2937;48.562;8.022;2022-07-09T09:52:32;10.43;;;4.23;;
5821;SDS011;2937;48.562;8.022;2022-07-09T09:57:26;5.93;;;3.30;;
5821;SDS011;2937;48.562;8.022;2022-07-09T10:02:19;5.87;;;3.30;;
5821;SDS011;2937;48.562;8.022;2022-07-09T10:07:13;6.73;;;2.90;;
5821;SDS011;2937;48.562;8.022;2022-07-09T10:12:08;7.77;;;3.33;;
5821;SDS011;2937;48.562;8.022;2022-07-09T10:17:11;4.60;;;2.70;;
5821;SDS011;2937;48.562;8.022;2022-07-09T10:22:05;8.00;;;2.73;;
5821;SDS011;2937;48.562;8.022;2022-07-09T10:27:04;3.57;;;2.20;;
5821;SDS011;2937;48.562;8.022;2022-07-09T10:31:58;7.23;;;2.70;;
5821;SDS011;2937;48.562;8.022;2022-07-09T10:36:56;6.60;;;2.70;;
5821;SDS011;2937;48.562;8.022;2022-07-09T10:41:57;3.53;;;2.60;;
5821;SDS011;2937;48.562;8.022;2022-07-09T10:46:55;4.30;;;2.63;;
5821;SDS011;2937;48.562;8.022;2022-07-09T10:51:49;3.97;;;2.70;;
5821;SDS011;2937;48.562;8.022;2022-07-09T10:56:42;3.33;;;2.30;;
5821;SDS011;2937;48.562;8.022;2022-07-09T11:01:35;3.10;;;2.60;;
5821;SDS011;2937;48.562;8.022;2022-07-09T11:06:28;3.17;;;2.40;;
5821;SDS011;2937;48.562;8.022;2022-07-09T11:11:23;3.80;;;2.53;;
5821;SDS011;2937;48.562;8.022;2022-07-09T11:16:21;4.70;;;2.37;;
5821;SDS011;2937;48.562;8.022;2022-07-09T11:21:20;3.73;;;2.63;;
5821;SDS011;2937;48.562;8.022;2022-07-09T11:26:14;3.60;;;2.33;;
5821;SDS011;2937;48.562;8.022;2022-07-09T11:31:08;4.97;;;2.40;;
5821;SDS011;2937;48.562;8.022;2022-07-09T11:36:00;6.13;;;2.33;;
5821;SDS011;2937;48.562;8.022;2022-07-09T11:40:58;3.50;;;2.37;;
5821;SDS011;2937;48.562;8.022;2022-07-09T11:45:51;4.07;;;2.10;;
5821;SDS011;2937;48.562;8.022;2022-07-09T11:50:46;2.80;;;2.10;;
5821;SDS011;2937;48.562;8.022;2022-07-09T11:55:38;3.40;;;2.00;;
5821;SDS011;2937;48.562;8.022;2022-07-09T12:00:32;3.07;;;1.83;;
5821;SDS011;2937;48.562;8.022;2022-07-09T12:05:27;3.30;;;2.03;;
5821;SDS011;2937;48.562;8.022;2022-07-09T12:10:26;2.33;;;1.83;;
5821;SDS011;2937;48.562;8.022;2022-07-09T12:15:19;3.70;;;2.07;;
5821;SDS011;2937;48.562;8.022;2022-07-09T12:20:12;3.33;;;2.20;;
5821;SDS011;2937;48.562;8.022;2022-07-09T12:25:05;3.83;;;2.23;;
5821;SDS011;2937;48.562;8.022;2022-07-09T12:29:59;3.63;;;2.00;;
5821;SDS011;2937;48.562;8.022;2022-07-09T12:34:52;2.80;;;2.20;;
5821;SDS011;2937;48.562;8.022;2022-07-09T12:39:44;7.03;;;2.30;;
5821;SDS011;2937;48.562;8.022;2022-07-09T12:44:42;4.07;;;2.60;;
5821;SDS011;2937;48.562;8.022;2022-07-09T12:49:36;3.50;;;2.47;;
5821;SDS011;2937;48.562;8.022;2022-07-09T12:54:28;2.70;;;2.30;;
5821;SDS011;2937;48.562;8.022;2022-07-09T12:59:21;4.13;;;2.50;;
5821;SDS011;2937;48.562;8.022;2022-07-09T13:04:14;2.93;;;2.20;;
5821;SDS011;2937;48.562;8.022;2022-07-09T13:09:08;5.03;;;2.50;;
5821;SDS011;2937;48.562;8.022;2022-07-09T13:14:02;3.90;;;2.57;;
5821;SDS011;2937;48.562;8.022;2022-07-09T13:18:55;3.60;;;2.20;;
5821;SDS011;2937;48.562;8.022;2022-07-09T13:23:47;3.10;;;2.10;;
5821;SDS011;2937;48.562;8.022;2022-07-09T13:28:42;6.10;;;2.20;;
5821;SDS011;2937;48.562;8.022;2022-07-09T13:33:35;2.80;;;2.10;;
5821;SDS011;2937;48.562;8.022;2022-07-09T13:38:27;3.10;;;2.23;;
5821;SDS011;2937;48.562;8.022;2022-07-09T13:43:20;3.17;;;1.93;;
5821;SDS011;2937;48.562;8.022;2022-07-09T13:48:28;2.50;;;1.83;;
5821;SDS011;2937;48.562;8.022;2022-07-09T13:53:20;4.60;;;2.10;;
5821;SDS011;2937;48.562;8.022;2022-07-09T13:58:13;3.53;;;2.13;;
5821;SDS011;2937;48.562;8.022;2022-07-09T14:03:06;2.83;;;2.37;;
5821;SDS011;2937;48.562;8.022;2022-07-09T14:08:00;2.67;;;2.23;;
5821;SDS011;2937;48.562;8.022;2022-07-09T14:12:52;4.40;;;2.30;;
5821;SDS011;2937;48.562;8.022;2022-07-09T14:17:45;4.73;;;2.30;;
5821;SDS011;2937;48.562;8.022;2022-07-09T14:22:38;4.00;;;2.70;;
5821;SDS011;2937;48.562;8.022;2022-07-09T14:27:31;3.77;;;2.50;;
5821;SDS011;2937;48.562;8.022;2022-07-09T14:32:27;6.17;;;2.57;;
5821;SDS011;2937;48.562;8.022;2022-07-09T14:37:20;3.63;;;2.30;;
5821;SDS011;2937;48.562;8.022;2022-07-09T14:42:13;2.97;;;2.23;;
5821;SDS011;2937;48.562;8.022;2022-07-09T14:47:08;3.40;;;2.23;;
5821;SDS011;2937;48.562;8.022;2022-07-09T14:52:00;3.70;;;2.50;;
5821;SDS011;2937;48.562;8.022;2022-07-09T14:56:53;2.90;;;2.30;;
5821;SDS011;2937;48.562;8.022;2022-07-09T15:01:45;2.80;;;2.23;;
5821;SDS011;2937;48.562;8.022;2022-07-09T15:06:40;2.80;;;2.13;;
5821;SDS011;2937;48.562;8.022;2022-07-09T15:11:32;2.93;;;2.30;;
5821;SDS011;2937;48.562;8.022;2022-07-09T15:16:31;4.37;;;2.53;;
5821;SDS011;2937;48.562;8.022;2022-07-09T15:21:23;4.03;;;2.37;;
5821;SDS011;2937;48.562;8.022;2022-07-09T15:26:18;4.07;;;2.60;;
5821;SDS011;2937;48.562;8.022;2022-07-09T15:31:11;4.43;;;2.30;;
5821;SDS011;2937;48.562;8.022;2022-07-09T15:36:04;4.73;;;2.23;;
5821;SDS011;2937;48.562;8.022;2022-07-09T15:40:57;3.97;;;2.40;;
5821;SDS011;2937;48.562;8.022;2022-07-09T15:45:51;6.87;;;2.80;;
5821;SDS011;2937;48.562;8.022;2022-07-09T15:50:43;2.50;;;2.30;;
5821;SDS011;2937;48.562;8.022;2022-07-09T15:55:36;4.20;;;2.40;;
5821;SDS011;2937;48.562;8.022;2022-07-09T16:00:29;3.20;;;2.57;;
5821;SDS011;2937;48.562;8.022;2022-07-09T16:05:22;3.50;;;2.23;;
5821;SDS011;2937;48.562;8.022;2022-07-09T16:10:15;2.50;;;2.23;;
5821;SDS011;2937;48.562;8.022;2022-07-09T16:15:08;3.43;;;2.40;;
5821;SDS011;2937;48.562;8.022;2022-07-09T16:20:01;4.17;;;2.30;;
5821;SDS011;2937;48.562;8.022;2022-07-09T16:24:55;3.10;;;2.40;;
5821;SDS011;2937;48.562;8.022;2022-07-09T16:29:47;4.47;;;2.50;;
5821;SDS011;2937;48.562;8.022;2022-07-09T16:34:40;8.30;;;2.80;;
5821;SDS011;2937;48.562;8.022;2022-07-09T16:39:32;4.20;;;2.50;;
5821;SDS011;2937;48.562;8.022;2022-07-09T16:44:27;3.37;;;2.43;;
5821;SDS011;2937;48.562;8.022;2022-07-09T16:49:19;3.77;;;2.27;;
5821;SDS011;2937;48.562;8.022;2022-07-09T16:54:32;5.23;;;2.67;;
5821;SDS011;2937;48.562;8.022;2022-07-09T16:59:24;4.13;;;2.60;;
5821;SDS011;2937;48.562;8.022;2022-07-09T17:04:38;3.23;;;2.60;;
5821;SDS011;2937;48.562;8.022;2022-07-09T17:09:31;3.37;;;2.57;;
5821;SDS011;2937;48.562;8.022;2022-07-09T17:14:23;4.40;;;2.40;;
5821;SDS011;2937;48.562;8.022;2022-07-09T17:19:17;3.90;;;2.63;;
5821;SDS011;2937;48.562;8.022;2022-07-09T17:24:11;5.20;;;2.87;;
5821;SDS011;2937;48.562;8.022;2022-07-09T17:29:03;5.07;;;3.10;;
5821;SDS011;2937;48.562;8.022;2022-07-09T17:33:56;4.33;;;2.80;;
5821;SDS011;2937;48.562;8.022;2022-07-09T17:38:48;10.93;;;2.90;;
5821;SDS011;2937;48.562;8.022;2022-07-09T17:43:42;3.70;;;2.60;;
5821;SDS011;2937;48.562;8.022;2022-07-09T17:48:35;9.33;;;2.93;;
5821;SDS011;2937;48.562;8.022;2022-07-09T17:53:28;4.83;;;3.30;;
5821;SDS011;2937;48.562;8.022;2022-07-09T17:58:23;6.40;;;3.60;;
5821;SDS011;2937;48.562;8.022;2022-07-09T18:03:17;6.30;;;3.23;;
5821;SDS011;2937;48.562;8.022;2022-07-09T18:08:09;5.33;;;3.37;;
5821;SDS011;2937;48.562;8.022;2022-07-09T18:13:02;3.70;;;3.07;;
5821;SDS011;2937;48.562;8.022;2022-07-09T18:17:58;5.17;;;3.90;;
5821;SDS011;2937;48.562;8.022;2022-07-09T18:22:58;7.80;;;3.30;;
5821;SDS011;2937;48.562;8.022;2022-07-09T18:27:51;6.83;;;3.27;;
5821;SDS011;2937;48.562;8.022;2022-07-09T18:32:43;4.13;;;3.40;;
5821;SDS011;2937;48.562;8.022;2022-07-09T18:37:36;4.30;;;3.10;;
5821;SDS011;2937;48.562;8.022;2022-07-09T18:42:30;4.83;;;3.27;;
5821;SDS011;2937;48.562;8.022;2022-07-09T18:47:22;4.50;;;3.40;;
5821;SDS011;2937;48.562;8.022;2022-07-09T18:52:15;6.53;;;3.70;;
5821;SDS011;2937;48.562;8.022;2022-07-09T18:57:08;4.33;;;3.67;;
5821;SDS011;2937;48.562;8.022;2022-07-09T19:02:02;4.80;;;3.60;;
5821;SDS011;2937;48.562;8.022;2022-07-09T19:06:55;5.93;;;3.30;;
5821;SDS011;2937;48.562;8.022;2022-07-09T19:11:47;5.07;;;3.50;;
5821;SDS011;2937;48.562;8.022;2022-07-09T19:16:40;4.03;;;3.63;;
5821;SDS011;2937;48.562;8.022;2022-07-09T19:21:34;5.63;;;3.13;;
5821;SDS011;2937;48.562;8.022;2022-07-09T19:26:27;5.23;;;3.33;;
5821;SDS011;2937;48.562;8.022;2022-07-09T19:31:19;7.20;;;3.40;;
5821;SDS011;2937;48.562;8.022;2022-07-09T19:36:30;4.17;;;3.60;;
5821;SDS011;2937;48.562;8.022;2022-07-09T19:41:24;4.70;;;3.77;;
5821;SDS011;2937;48.562;8.022;2022-07-09T19:46:17;5.70;;;4.30;;
5821;SDS011;2937;48.562;8.022;2022-07-09T19:51:10;4.90;;;4.40;;
5821;SDS011;2937;48.562;8.022;2022-07-09T19:56:03;7.33;;;4.83;;
5821;SDS011;2937;48.562;8.022;2022-07-09T20:00:57;6.63;;;4.87;;
5821;SDS011;2937;48.562;8.022;2022-07-09T20:05:51;6.33;;;4.60;;
5821;SDS011;2937;48.562;8.022;2022-07-09T20:10:43;5.03;;;4.30;;
5821;SDS011;2937;48.562;8.022;2022-07-09T20:15:36;6.83;;;4.40;;
5821;SDS011;2937;48.562;8.022;2022-07-09T20:20:30;8.67;;;4.30;;
5821;SDS011;2937;48.562;8.022;2022-07-09T20:25:23;8.67;;;4.53;;
5821;SDS011;2937;48.562;8.022;2022-07-09T20:30:16;5.20;;;4.70;;
5821;SDS011;2937;48.562;8.022;2022-07-09T20:35:09;5.63;;;4.20;;
5821;SDS011;2937;48.562;8.022;2022-07-09T20:40:03;11.57;;;4.60;;
5821;SDS011;2937;48.562;8.022;2022-07-09T20:44:56;5.70;;;4.00;;
5821;SDS011;2937;48.562;8.022;2022-07-09T20:49:48;7.50;;;3.50;;
5821;SDS011;2937;48.562;8.022;2022-07-09T20:54:41;6.60;;;4.10;;
5821;SDS011;2937;48.562;8.022;2022-07-09T20:59:35;7.73;;;4.23;;
5821;SDS011;2937;48.562;8.022;2022-07-09T21:04:28;6.37;;;3.87;;
5821;SDS011;2937;48.562;8.022;2022-07-09T21:09:20;8.53;;;4.00;;
5821;SDS011;2937;48.562;8.022;2022-07-09T21:14:13;4.53;;;3.90;;
5821;SDS011;2937;48.562;8.022;2022-07-09T21:19:07;6.60;;;3.67;;
5821;SDS011;2937;48.562;8.022;2022-07-09T21:23:59;4.83;;;3.90;;
5821;SDS011;2937;48.562;8.022;2022-07-09T21:28:52;10.83;;;4.47;;
5821;SDS011;2937;48.562;8.022;2022-07-09T21:33:45;6.40;;;4.30;;
5821;SDS011;2937;48.562;8.022;2022-07-09T21:38:39;6.17;;;4.33;;
5821;SDS011;2937;48.562;8.022;2022-07-09T21:43:32;7.20;;;4.87;;
5821;SDS011;2937;48.562;8.022;2022-07-09T21:48:24;7.30;;;4.90;;
5821;SDS011;2937;48.562;8.022;2022-07-09T21:53:17;6.27;;;4.37;;
5821;SDS011;2937;48.562;8.022;2022-07-09T21:58:11;4.53;;;3.90;;
5821;SDS011;2937;48.562;8.022;2022-07-09T22:03:04;7.90;;;4.90;;
5821;SDS011;2937;48.562;8.022;2022-07-09T22:07:56;5.43;;;4.30;;
5821;SDS011;2937;48.562;8.022;2022-07-09T22:12:49;7.80;;;4.40;;
5821;SDS011;2937;48.562;8.022;2022-07-09T22:17:43;7.27;;;4.73;;
5821;SDS011;2937;48.562;8.022;2022-07-09T22:22:36;6.23;;;4.70;;
5821;SDS011;2937;48.562;8.022;2022-07-09T22:27:28;7.40;;;4.80;;
5821;SDS011;2937;48.562;8.022;2022-07-09T22:32:21;5.40;;;4.80;;
5821;SDS011;2937;48.562;8.022;2022-07-09T22:37:15;5.23;;;4.73;;
5821;SDS011;2937;48.562;8.022;2022-07-09T22:42:07;8.93;;;4.90;;
5821;SDS011;2937;48.562;8.022;2022-07-09T22:47:00;6.33;;;5.10;;
5821;SDS011;2937;48.562;8.022;2022-07-09T22:51:53;10.17;;;5.80;;
5821;SDS011;2937;48.562;8.022;2022-07-09T22:56:48;6.90;;;5.40;;
5821;SDS011;2937;48.562;8.022;2022-07-09T23:01:40;10.00;;;6.10;;
5821;SDS011;2937;48.562;8.022;2022-07-09T23:06:33;6.60;;;5.27;;
5821;SDS011;2937;48.562;8.022;2022-07-09T23:11:27;9.70;;;5.83;;
5821;SDS011;2937;48.562;8.022;2022-07-09T23:16:22;8.67;;;6.23;;
5821;SDS011;2937;48.562;8.022;2022-07-09T23:21:19;7.00;;;6.10;;
5821;SDS011;2937;48.562;8.022;2022-07-09T23:26:12;7.37;;;5.73;;
5821;SDS011;2937;48.562;8.022;2022-07-09T23:31:05;6.83;;;6.13;;
5821;SDS011;2937;48.562;8.022;2022-07-09T23:36:01;7.67;;;6.60;;
5821;SDS011;2937;48.562;8.022;2022-07-09T23:40:53;8.30;;;6.30;;
5821;SDS011;2937;48.562;8.022;2022-07-09T23:45:46;6.83;;;6.13;;
5821;SDS011;2937;48.562;8.022;2022-07-09T23:50:38;7.53;;;6.73;;
5821;SDS011;2937;48.562;8.022;2022-07-09T23:55:32;8.13;;;6.93;;
